createdAt,value
2024-04-30T00:01:14.226Z,5.90
2024-04-30T00:03:42.890Z,5.80
2024-04-30T00:06:11.856Z,5.90
2024-04-30T00:08:40.385Z,6.00
2024-04-30T00:11:08.949Z,4.90
2024-04-30T00:13:37.636Z,6.20
2024-04-30T00:16:06.381Z,5.80
2024-04-30T00:18:34.882Z,5.90
2024-04-30T00:21:03.375Z,6.40
2024-04-30T00:23:31.899Z,6.20
2024-04-30T00:26:00.494Z,7.40
2024-04-30T00:28:29.178Z,6.40
2024-04-30T00:30:57.753Z,6.30
2024-04-30T00:33:26.775Z,6.50
2024-04-30T00:35:55.334Z,5.70
2024-04-30T00:38:23.978Z,5.80
2024-04-30T00:40:52.483Z,6.70
2024-04-30T00:43:21.662Z,6.80
2024-04-30T00:45:50.213Z,6.40
2024-04-30T00:48:19.143Z,7.20
2024-04-30T00:50:48.213Z,6.00
2024-04-30T00:53:18.231Z,5.70
2024-04-30T00:55:46.747Z,6.20
2024-04-30T00:58:15.324Z,6.30
2024-04-30T01:00:43.835Z,6.60
2024-04-30T01:03:12.536Z,6.30
2024-04-30T01:05:41.106Z,5.80
2024-04-30T01:08:09.719Z,6.30
2024-04-30T01:10:38.288Z,5.50
2024-04-30T01:13:07.067Z,6.70
2024-04-30T01:15:35.518Z,6.60
2024-04-30T01:18:04.134Z,6.10
2024-04-30T01:20:32.747Z,6.10
2024-04-30T01:23:01.262Z,5.90
2024-04-30T01:25:29.787Z,6.10
2024-04-30T01:27:58.323Z,7.10
2024-04-30T01:30:26.777Z,6.00
2024-04-30T01:32:56.243Z,6.60
2024-04-30T01:35:24.856Z,6.10
2024-04-30T01:37:53.450Z,6.20
2024-04-30T01:40:22.037Z,6.40
2024-04-30T01:42:50.621Z,6.00
2024-04-30T01:45:19.092Z,5.60
2024-04-30T01:47:47.691Z,6.30
2024-04-30T01:50:16.215Z,5.80
2024-04-30T01:52:44.705Z,6.20
2024-04-30T01:55:13.400Z,6.00
2024-04-30T01:57:41.928Z,6.70
2024-04-30T02:00:11.002Z,6.80
2024-04-30T02:02:39.533Z,5.50
2024-04-30T02:05:13.754Z,5.90
2024-04-30T02:07:48.849Z,6.50
2024-04-30T02:10:17.798Z,5.80
2024-04-30T02:12:46.295Z,6.60
2024-04-30T02:15:14.888Z,6.80
2024-04-30T02:17:43.533Z,6.70
2024-04-30T02:20:12.152Z,6.30
2024-04-30T02:22:40.691Z,6.90
2024-04-30T02:25:09.279Z,6.60
2024-04-30T02:27:37.832Z,6.10
2024-04-30T02:30:09.193Z,6.50
2024-04-30T02:32:57.913Z,7.00
2024-04-30T02:35:26.482Z,6.70
2024-04-30T02:37:54.992Z,6.10
2024-04-30T02:40:23.476Z,7.00
2024-04-30T02:42:51.968Z,6.90
2024-04-30T02:45:20.646Z,7.90
2024-04-30T02:47:49.167Z,6.70
2024-04-30T02:50:17.671Z,7.40
2024-04-30T02:52:46.183Z,7.70
2024-04-30T02:55:14.676Z,7.90
2024-04-30T02:57:43.179Z,7.70
2024-04-30T03:00:12.322Z,6.90
2024-04-30T03:02:40.827Z,6.60
2024-04-30T03:05:09.373Z,7.60
2024-04-30T03:07:37.868Z,7.00
2024-04-30T03:10:06.792Z,7.10
2024-04-30T03:12:35.290Z,7.10
2024-04-30T03:15:04.156Z,7.40
2024-04-30T03:17:32.749Z,7.30
2024-04-30T03:20:01.466Z,7.10
2024-04-30T03:22:30.111Z,7.20
2024-04-30T03:24:58.699Z,8.10
2024-04-30T03:27:27.213Z,7.30
2024-04-30T03:29:55.671Z,8.40
2024-04-30T03:32:24.199Z,7.40
2024-04-30T03:34:52.863Z,7.40
2024-04-30T03:37:21.360Z,7.70
2024-04-30T03:39:49.838Z,7.90
2024-04-30T03:42:18.797Z,7.80
2024-04-30T03:44:47.286Z,7.20
2024-04-30T03:47:15.845Z,7.20
2024-04-30T03:49:44.343Z,7.70
2024-04-30T03:52:12.835Z,7.40
2024-04-30T03:54:41.334Z,9.10
2024-04-30T03:57:09.806Z,8.30
2024-04-30T03:59:38.332Z,7.70
2024-04-30T04:02:06.800Z,7.40
2024-04-30T04:04:37.992Z,7.40
2024-04-30T04:07:06.663Z,8.50
2024-04-30T04:09:35.189Z,8.00
2024-04-30T04:12:23.460Z,8.70
2024-04-30T04:14:52.342Z,8.50
2024-04-30T04:17:21.402Z,7.80
2024-04-30T04:19:50.218Z,8.40
2024-04-30T04:22:18.821Z,8.00
2024-04-30T04:24:47.394Z,8.50
2024-04-30T04:27:15.908Z,8.00
2024-04-30T04:29:44.367Z,8.00
2024-04-30T04:32:12.972Z,8.10
2024-04-30T04:34:41.495Z,8.40
2024-04-30T04:37:10.069Z,9.20
2024-04-30T04:39:38.603Z,8.80
2024-04-30T04:42:07.327Z,8.40
2024-04-30T04:44:35.834Z,9.70
2024-04-30T04:47:04.560Z,9.70
2024-04-30T04:49:33.511Z,9.80
2024-04-30T04:52:02.114Z,9.80
2024-04-30T04:54:30.633Z,9.60
2024-04-30T04:56:59.167Z,9.00
2024-04-30T04:59:27.626Z,9.30
2024-04-30T05:01:56.220Z,9.10
2024-04-30T05:04:24.927Z,9.70
2024-04-30T05:06:55.149Z,8.90
2024-04-30T05:09:27.912Z,9.00
2024-04-30T05:11:56.400Z,9.50
2024-04-30T05:14:24.901Z,9.30
2024-04-30T05:16:53.402Z,10.10
2024-04-30T05:19:21.986Z,9.40
2024-04-30T05:21:50.456Z,8.70
2024-04-30T05:24:18.954Z,8.50
2024-04-30T05:26:47.444Z,9.10
2024-04-30T05:29:15.924Z,8.40
2024-04-30T05:31:44.407Z,9.40
2024-04-30T05:34:13.003Z,9.40
2024-04-30T05:36:41.487Z,9.50
2024-04-30T05:39:09.984Z,9.40
2024-04-30T05:41:38.425Z,9.10
2024-04-30T05:44:06.913Z,10.10
2024-04-30T05:46:35.541Z,11.10
2024-04-30T05:49:04.269Z,9.50
2024-04-30T05:51:33.115Z,9.30
2024-04-30T05:54:01.592Z,7.50
2024-04-30T05:56:30.098Z,8.50
2024-04-30T05:58:58.640Z,8.90
2024-04-30T06:01:27.174Z,8.40
2024-04-30T06:03:55.756Z,7.80
2024-04-30T06:06:24.597Z,8.20
2024-04-30T06:08:53.182Z,7.50
2024-04-30T06:11:21.771Z,6.70
2024-04-30T06:13:50.289Z,7.70
2024-04-30T06:16:18.838Z,6.60
2024-04-30T06:18:47.487Z,7.00
2024-04-30T06:21:23.719Z,7.30
2024-04-30T06:23:55.715Z,6.90
2024-04-30T06:26:24.254Z,7.50
2024-04-30T06:28:53.888Z,7.00
2024-04-30T06:31:22.593Z,5.90
2024-04-30T06:33:51.182Z,6.10
2024-04-30T06:36:19.703Z,5.60
2024-04-30T06:38:48.585Z,6.70
2024-04-30T06:41:18.083Z,6.60
2024-04-30T06:43:46.603Z,6.00
2024-04-30T06:46:15.191Z,6.10
2024-04-30T06:48:43.829Z,6.40
2024-04-30T06:51:12.436Z,6.90
2024-04-30T06:53:40.953Z,6.50
2024-04-30T06:56:09.491Z,6.40
2024-04-30T06:58:38.130Z,5.90
2024-04-30T07:01:06.960Z,6.10
2024-04-30T07:03:35.518Z,5.10
2024-04-30T07:06:04.138Z,4.90
2024-04-30T07:08:32.590Z,5.70
2024-04-30T07:11:02.608Z,5.70
2024-04-30T07:13:31.750Z,5.10
2024-04-30T07:16:00.344Z,5.50
2024-04-30T07:18:29.039Z,5.20
2024-04-30T07:20:57.604Z,5.10
2024-04-30T07:23:27.152Z,4.40
2024-04-30T07:25:55.620Z,4.70
2024-04-30T07:28:24.956Z,4.30
2024-04-30T07:30:53.455Z,4.10
2024-04-30T07:33:22.005Z,4.40
2024-04-30T07:35:50.619Z,4.70
2024-04-30T07:38:19.137Z,4.20
2024-04-30T07:40:47.630Z,3.70
2024-04-30T07:43:16.181Z,3.70
2024-04-30T07:45:44.720Z,3.30
2024-04-30T07:48:13.466Z,3.50
2024-04-30T07:50:42.071Z,3.00
2024-04-30T07:53:10.584Z,2.80
2024-04-30T07:55:39.119Z,3.50
2024-04-30T07:58:07.661Z,3.50
2024-04-30T08:00:36.273Z,3.60
2024-04-30T08:03:05.066Z,3.00
2024-04-30T08:05:42.504Z,3.30
2024-04-30T08:08:13.478Z,3.20
2024-04-30T08:10:42.368Z,3.20
2024-04-30T08:13:11.114Z,3.30
2024-04-30T08:15:39.883Z,3.60
2024-04-30T08:18:08.838Z,2.90
2024-04-30T08:20:37.419Z,2.90
2024-04-30T08:23:05.969Z,2.80
2024-04-30T08:25:34.541Z,2.60
2024-04-30T08:28:03.112Z,3.00
2024-04-30T08:30:31.624Z,2.90
2024-04-30T08:33:00.953Z,2.70
2024-04-30T08:35:29.584Z,2.70
2024-04-30T08:38:01.212Z,3.10
2024-04-30T08:40:30.413Z,2.70
2024-04-30T08:42:59.912Z,2.60
2024-04-30T08:45:29.271Z,2.80
2024-04-30T08:47:59.085Z,3.10
2024-04-30T08:50:29.005Z,3.20
2024-04-30T08:52:58.405Z,2.10
2024-04-30T08:55:28.381Z,2.70
2024-04-30T08:57:56.876Z,2.70
2024-04-30T09:00:25.458Z,2.20
2024-04-30T09:02:55.132Z,2.40
2024-04-30T09:05:24.105Z,2.30
2024-04-30T09:07:52.607Z,2.50
2024-04-30T09:10:21.123Z,2.50
2024-04-30T09:12:49.632Z,2.20
2024-04-30T09:15:19.080Z,3.30
2024-04-30T09:17:48.975Z,2.30
2024-04-30T09:20:17.612Z,2.30
2024-04-30T09:22:53.669Z,2.30
2024-04-30T09:25:36.764Z,2.10
2024-04-30T09:28:18.228Z,2.50
2024-04-30T09:30:56.313Z,2.30
2024-04-30T09:33:25.726Z,2.70
2024-04-30T09:36:09.781Z,2.60
2024-04-30T09:38:40.452Z,2.30
2024-04-30T09:41:13.702Z,12.40
2024-04-30T09:43:42.922Z,10.10
2024-04-30T09:46:13.456Z,4.20
2024-04-30T09:48:44.333Z,8.20
2024-04-30T09:51:14.139Z,5.50
2024-04-30T09:53:47.133Z,4.50
2024-04-30T09:56:15.862Z,5.40
2024-04-30T09:58:44.493Z,5.90
2024-04-30T10:01:17.134Z,2.80
2024-04-30T10:03:46.785Z,4.20
2024-04-30T10:06:18.278Z,3.70
2024-04-30T10:08:47.292Z,2.50
2024-04-30T10:11:16.005Z,3.00
2024-04-30T10:13:55.435Z,3.90
2024-04-30T10:16:24.029Z,3.50
2024-04-30T10:19:05.469Z,4.60
2024-04-30T10:21:36.112Z,2.20
2024-04-30T10:24:22.041Z,2.70
2024-04-30T10:26:52.192Z,2.50
2024-04-30T10:29:20.795Z,2.70
2024-04-30T10:31:49.994Z,2.50
2024-04-30T10:34:19.539Z,2.90
2024-04-30T10:36:49.160Z,3.20
2024-04-30T10:39:26.936Z,2.80
2024-04-30T10:41:55.715Z,2.60
2024-04-30T10:44:24.248Z,3.50
2024-04-30T10:46:52.881Z,3.20
2024-04-30T10:49:21.966Z,3.00
2024-04-30T10:51:51.766Z,3.10
2024-04-30T10:54:20.621Z,2.90
2024-04-30T10:56:49.189Z,2.90
2024-04-30T10:59:27.048Z,2.70
2024-04-30T11:02:00.508Z,2.60
2024-04-30T11:04:31.868Z,2.60
2024-04-30T11:07:00.628Z,2.50
2024-04-30T11:09:29.305Z,2.60
2024-04-30T11:12:01.978Z,2.80
2024-04-30T11:14:31.019Z,2.60
2024-04-30T11:16:59.714Z,2.20
2024-04-30T11:19:28.271Z,3.10
2024-04-30T11:21:56.911Z,2.70
2024-04-30T11:24:25.402Z,2.60
2024-04-30T11:26:53.919Z,2.80
2024-04-30T11:29:34.545Z,2.80
2024-04-30T11:32:07.307Z,3.00
2024-04-30T11:34:36.163Z,2.20
2024-04-30T11:37:04.970Z,2.60
2024-04-30T11:39:34.446Z,2.80
2024-04-30T11:42:13.603Z,2.60
2024-04-30T11:44:49.731Z,2.60
2024-04-30T11:47:18.289Z,2.20
2024-04-30T11:49:47.052Z,2.40
2024-04-30T11:52:17.679Z,2.70
2024-04-30T11:54:46.290Z,2.70
2024-04-30T11:57:14.918Z,2.20
2024-04-30T11:59:43.442Z,3.20
2024-04-30T12:02:12.155Z,2.30
2024-04-30T12:04:40.924Z,2.30
2024-04-30T12:07:09.567Z,2.70
2024-04-30T12:09:38.118Z,2.60
2024-04-30T12:12:06.956Z,2.40
2024-04-30T12:14:35.427Z,2.30
2024-04-30T12:17:05.033Z,2.40
2024-04-30T12:19:33.594Z,2.40
2024-04-30T12:22:02.120Z,2.70
2024-04-30T12:24:30.619Z,2.50
2024-04-30T12:26:59.172Z,3.70
2024-04-30T12:29:27.651Z,2.70
2024-04-30T12:31:56.148Z,4.50
2024-04-30T12:34:24.713Z,2.10
2024-04-30T12:36:53.240Z,3.90
2024-04-30T12:39:21.840Z,4.60
2024-04-30T12:41:50.376Z,2.60
2024-04-30T12:44:18.860Z,2.70
2024-04-30T12:46:47.460Z,3.20
2024-04-30T12:49:16.220Z,5.20
2024-04-30T12:51:44.800Z,2.70
2024-04-30T12:54:13.443Z,3.30
2024-04-30T12:56:41.968Z,4.10
2024-04-30T12:59:11.008Z,3.50
2024-04-30T13:01:39.544Z,5.20
2024-04-30T13:04:08.269Z,5.10
2024-04-30T13:06:41.449Z,5.30
2024-04-30T13:09:10.397Z,7.50
2024-04-30T13:11:40.331Z,4.00
2024-04-30T13:14:08.858Z,4.30
2024-04-30T13:16:44.339Z,4.00
2024-04-30T13:19:13.026Z,3.10
2024-04-30T13:21:41.650Z,5.10
2024-04-30T13:24:12.421Z,3.50
2024-04-30T13:26:41.019Z,2.40
2024-04-30T13:29:09.579Z,3.40
2024-04-30T13:31:38.156Z,3.60
2024-04-30T13:34:06.777Z,2.30
2024-04-30T13:36:35.306Z,2.30
2024-04-30T13:39:03.983Z,3.10
2024-04-30T13:41:32.448Z,3.80
2024-04-30T13:44:00.979Z,3.30
2024-04-30T13:46:29.482Z,2.80
2024-04-30T13:48:58.135Z,2.90
2024-04-30T13:51:26.705Z,3.00
2024-04-30T13:53:55.216Z,3.00
2024-04-30T13:56:23.698Z,2.70
2024-04-30T13:58:52.212Z,2.90
2024-04-30T14:01:20.932Z,3.70
2024-04-30T14:03:49.574Z,3.20
2024-04-30T14:06:21.253Z,3.80
2024-04-30T14:08:49.851Z,2.40
2024-04-30T14:11:18.647Z,2.70
2024-04-30T14:13:47.257Z,2.60
2024-04-30T14:16:15.839Z,2.70
2024-04-30T14:18:44.511Z,2.50
2024-04-30T14:21:13.111Z,3.40
2024-04-30T14:23:41.616Z,3.00
2024-04-30T14:26:17.434Z,3.00
2024-04-30T14:28:46.067Z,3.70
2024-04-30T14:31:18.146Z,4.60
2024-04-30T14:33:48.549Z,3.50
2024-04-30T14:36:34.228Z,5.00
2024-04-30T14:39:06.631Z,3.40
2024-04-30T14:41:35.523Z,2.90
2024-04-30T14:44:04.142Z,2.50
2024-04-30T14:46:33.102Z,3.40
2024-04-30T14:49:01.928Z,2.70
2024-04-30T14:51:41.574Z,2.50
2024-04-30T14:54:11.789Z,3.00
2024-04-30T14:56:40.284Z,2.60
2024-04-30T14:59:08.819Z,3.40
2024-04-30T15:01:44.892Z,3.00
2024-04-30T15:04:13.779Z,2.80
2024-04-30T15:06:42.571Z,2.50
2024-04-30T15:09:11.641Z,2.90
2024-04-30T15:11:40.268Z,2.80
2024-04-30T15:14:08.835Z,2.90
2024-04-30T15:16:42.164Z,2.60
2024-04-30T15:19:10.742Z,2.60
2024-04-30T15:21:44.004Z,2.80
2024-04-30T15:24:12.891Z,2.60
2024-04-30T15:26:44.357Z,2.90
2024-04-30T15:29:13.867Z,3.10
2024-04-30T15:31:42.565Z,2.30
2024-04-30T15:34:11.336Z,3.00
2024-04-30T15:36:44.328Z,2.40
2024-04-30T15:39:17.548Z,2.80
2024-04-30T15:41:46.138Z,2.30
2024-04-30T15:44:14.691Z,2.60
2024-04-30T15:46:43.301Z,3.20
2024-04-30T15:49:13.199Z,2.90
2024-04-30T15:51:42.496Z,2.60
2024-04-30T15:54:14.404Z,2.80
2024-04-30T15:56:50.510Z,2.70
2024-04-30T15:59:23.218Z,2.40
2024-04-30T16:01:51.979Z,2.10
2024-04-30T16:04:20.664Z,2.60
2024-04-30T16:06:49.298Z,2.60
2024-04-30T16:09:17.847Z,2.70
2024-04-30T16:11:46.388Z,2.90
2024-04-30T16:14:15.029Z,2.80
2024-04-30T16:16:43.592Z,2.40
2024-04-30T16:19:13.173Z,2.20
2024-04-30T16:21:42.725Z,2.10
2024-04-30T16:24:12.811Z,2.80
2024-04-30T16:29:10.354Z,2.10
2024-04-30T16:31:39.119Z,3.20
2024-04-30T16:34:08.541Z,2.30
2024-04-30T16:36:37.094Z,2.60
2024-04-30T16:39:05.762Z,2.70
2024-04-30T16:41:34.302Z,2.40
2024-04-30T16:44:02.824Z,2.60
2024-04-30T16:46:31.371Z,2.10
2024-04-30T16:48:59.898Z,2.40
2024-04-30T16:51:28.401Z,2.20
2024-04-30T16:53:56.964Z,2.10
2024-04-30T16:56:25.470Z,2.50
2024-04-30T16:58:54.026Z,2.60
2024-04-30T17:01:22.606Z,2.30
2024-04-30T17:03:51.302Z,2.50
2024-04-30T17:06:19.939Z,2.40
2024-04-30T17:08:48.465Z,2.50
2024-04-30T17:11:17.463Z,2.40
2024-04-30T17:13:46.102Z,2.80
2024-04-30T17:16:21.838Z,2.50
2024-04-30T17:18:51.151Z,2.50
2024-04-30T17:21:22.213Z,2.30
2024-04-30T17:23:50.771Z,2.70
2024-04-30T17:26:26.270Z,3.00
2024-04-30T17:28:56.060Z,2.40
2024-04-30T17:31:25.823Z,3.20
2024-04-30T17:33:56.984Z,3.20
2024-04-30T17:36:25.906Z,4.30
2024-04-30T17:38:54.580Z,2.90
2024-04-30T17:41:25.381Z,2.40
2024-04-30T17:43:54.152Z,2.60
2024-04-30T17:46:26.071Z,2.60
2024-04-30T17:48:56.966Z,2.70
2024-04-30T17:51:26.387Z,3.30
2024-04-30T17:53:55.093Z,2.70
2024-04-30T17:56:23.707Z,2.70
2024-04-30T17:58:52.616Z,2.80
2024-04-30T18:01:21.233Z,2.70
2024-04-30T18:03:53.711Z,2.30
2024-04-30T18:06:23.559Z,2.50
2024-04-30T18:08:57.279Z,2.90
2024-04-30T18:11:29.735Z,2.40
2024-04-30T18:13:58.832Z,2.60
2024-04-30T18:16:28.175Z,3.20
2024-04-30T18:18:57.010Z,3.00
2024-04-30T18:21:27.534Z,2.10
2024-04-30T18:23:56.413Z,2.60
2024-04-30T18:26:24.918Z,6.80
2024-04-30T18:28:55.066Z,9.10
2024-04-30T18:31:25.928Z,3.80
2024-04-30T18:33:56.596Z,3.50
2024-04-30T18:36:25.910Z,2.90
2024-04-30T18:38:55.320Z,2.60
2024-04-30T18:41:30.229Z,4.20
2024-04-30T18:44:00.189Z,2.60
2024-04-30T18:46:29.330Z,3.20
2024-04-30T18:48:58.340Z,2.60
2024-04-30T18:51:27.070Z,2.60
2024-04-30T18:53:56.253Z,2.70
2024-04-30T18:56:24.792Z,2.20
2024-04-30T18:58:53.290Z,2.40
2024-04-30T19:01:22.058Z,2.30
2024-04-30T19:03:52.894Z,3.50
2024-04-30T19:06:22.298Z,2.60
2024-04-30T19:08:50.895Z,3.00
2024-04-30T19:11:19.843Z,2.80
2024-04-30T19:13:48.386Z,2.90
2024-04-30T19:16:16.912Z,2.60
2024-04-30T19:18:45.645Z,3.10
2024-04-30T19:21:14.981Z,3.00
2024-04-30T19:23:43.498Z,2.80
2024-04-30T19:26:17.019Z,2.50
2024-04-30T19:28:45.587Z,3.30
2024-04-30T19:31:19.730Z,2.70
2024-04-30T19:33:48.508Z,2.50
2024-04-30T19:36:19.203Z,2.80
2024-04-30T19:38:48.235Z,2.90
2024-04-30T19:41:17.696Z,3.00
2024-04-30T19:43:46.372Z,3.20
2024-04-30T19:46:18.617Z,3.40
2024-04-30T19:48:51.369Z,2.70
2024-04-30T19:51:22.368Z,3.30
2024-04-30T19:53:52.669Z,3.00
2024-04-30T19:56:21.509Z,3.20
2024-04-30T19:58:56.418Z,3.00
2024-04-30T20:01:28.141Z,3.50
2024-04-30T20:06:27.699Z,3.10
2024-04-30T20:08:56.356Z,3.00
2024-04-30T20:11:26.128Z,3.10
2024-04-30T20:13:56.132Z,3.40
2024-04-30T20:16:25.992Z,3.50
2024-04-30T20:18:55.099Z,3.70
2024-04-30T20:21:25.239Z,4.20
2024-04-30T20:23:54.527Z,3.40
2024-04-30T20:26:23.615Z,3.30
2024-04-30T20:28:52.142Z,3.50
2024-04-30T20:31:20.742Z,4.00
2024-04-30T20:33:49.432Z,3.60
2024-04-30T20:36:19.400Z,4.00
2024-04-30T20:38:47.955Z,4.00
2024-04-30T20:41:16.504Z,4.10
2024-04-30T20:43:45.066Z,3.40
2024-04-30T20:46:13.707Z,4.30
2024-04-30T20:48:43.697Z,3.70
2024-04-30T20:51:12.618Z,3.80
2024-04-30T20:53:42.153Z,4.00
2024-04-30T20:56:11.358Z,3.90
2024-04-30T20:58:42.965Z,3.90
2024-04-30T21:01:16.397Z,3.80
2024-04-30T21:03:45.308Z,3.90
2024-04-30T21:06:13.949Z,4.80
2024-04-30T21:08:42.464Z,4.70
2024-04-30T21:11:17.479Z,4.70
2024-04-30T21:13:46.114Z,5.20
2024-04-30T21:16:14.629Z,4.70
2024-04-30T21:18:45.875Z,4.30
2024-04-30T21:21:14.513Z,4.90
2024-04-30T21:23:43.664Z,4.80
2024-04-30T21:26:12.382Z,4.30
2024-04-30T21:28:41.560Z,4.10
2024-04-30T21:31:10.074Z,4.10
2024-04-30T21:33:42.674Z,4.40
2024-04-30T21:36:12.038Z,4.40
2024-04-30T21:38:40.982Z,4.40
2024-04-30T21:41:09.490Z,4.50
2024-04-30T21:43:38.063Z,4.30
2024-04-30T21:46:06.636Z,4.90
2024-04-30T21:48:39.077Z,5.10
2024-04-30T21:51:07.888Z,5.10
2024-04-30T21:53:38.530Z,5.20
2024-04-30T21:56:07.383Z,4.40
2024-04-30T21:58:35.870Z,5.00
2024-04-30T22:01:04.729Z,4.40
2024-04-30T22:03:36.998Z,4.50
2024-04-30T22:06:06.697Z,5.40
2024-04-30T22:08:35.663Z,4.90
2024-04-30T22:11:04.687Z,5.30
2024-04-30T22:13:33.406Z,5.00
2024-04-30T22:16:02.473Z,4.90
2024-04-30T22:18:35.115Z,4.80
2024-04-30T22:21:10.186Z,5.30
2024-04-30T22:23:39.274Z,5.50
2024-04-30T22:26:08.075Z,5.20
2024-04-30T22:28:36.574Z,5.30
2024-04-30T22:31:06.088Z,5.10
2024-04-30T22:33:34.963Z,5.30
2024-04-30T22:36:03.711Z,5.30
2024-04-30T22:38:32.191Z,6.30
2024-04-30T22:41:00.650Z,7.50
2024-04-30T22:43:29.105Z,8.20
2024-04-30T22:45:58.052Z,9.20
2024-04-30T22:48:26.694Z,9.50
2024-04-30T22:50:57.423Z,9.40
2024-04-30T22:53:29.019Z,9.60
2024-04-30T22:55:59.278Z,10.30
2024-04-30T22:58:28.071Z,11.20
2024-04-30T23:00:56.674Z,11.00
2024-04-30T23:03:25.522Z,11.50
2024-04-30T23:05:54.205Z,11.20
2024-04-30T23:08:22.793Z,12.50
2024-04-30T23:10:51.257Z,12.90
2024-04-30T23:13:19.744Z,13.00
2024-04-30T23:15:48.235Z,13.30
2024-04-30T23:18:16.856Z,13.00
2024-04-30T23:20:45.531Z,15.00
2024-04-30T23:23:14.051Z,14.80
2024-04-30T23:25:42.505Z,14.60
2024-04-30T23:28:11.332Z,14.40
2024-04-30T23:30:39.844Z,13.60
2024-04-30T23:33:08.352Z,15.20
2024-04-30T23:35:36.812Z,16.30
2024-04-30T23:38:05.486Z,16.10
2024-04-30T23:40:33.946Z,17.60
2024-04-30T23:43:02.536Z,17.60
2024-04-30T23:45:31.074Z,16.40
2024-04-30T23:47:59.619Z,16.70
2024-04-30T23:50:28.075Z,15.80
2024-04-30T23:52:56.640Z,16.30
2024-04-30T23:55:25.091Z,15.00
2024-04-30T23:57:53.921Z,16.10
